Alma, MI

8:44 AM EST on November 12, 2019 (GMT -0500)
Gratiot Community

Weather History for KAMN - October, 2019

Change the Weather History Date:

Monday, October 21, 2019

  Actual Average Record
Temperature  
Mean Temperature 53 °F -  
Max Temperature 60 °F 56 °F 84 °F (1953)
Min Temperature 46 °F 36 °F 22 °F (1974)
Degree Days  
Heating Degree Days 12    
Growing Degree Days 3 (Base 50)    
Moisture  
Dew Point 51 °F    
Average Humidity 88    
Maximum Humidity 93    
Minimum Humidity 71    
Precipitation  
Precipitation 0.00 in - - ()
Sea Level Pressure  
Sea Level Pressure 29.76 in    
Wind  
Wind Speed 8 mph (ESE)    
Max Wind Speed 20 mph    
Max Gust Speed 32 mph    
Visibility 9 miles    
Events Rain    
Averages and records for this station are not official NWS values.
T = Trace of Precipitation, MM = Missing Value Source: NWS Daily Summary

Daily Weather History Graph

Daily Weather History Graph

Search for Another Location

Airport or City:

Astronomy

Oct. 21, 2019 Rise Set
Actual Time 7:59 AM EDT 6:46 PM EDT
Civil Twilight 7:30 AM EDT 7:15 PM EDT
Nautical Twilight 6:57 AM EDT 7:48 PM EDT
Astronomical Twilight 6:24 AM EDT 8:21 PM EDT
Moon No Moon Rise 3:23 PM EDT (10/21)
Length of Visible Light 11h 44m
Length of Day
10h 46m
Waning Gibbous, 48% of the Moon is Illuminated
Oct 21
Waning Gibbous
Oct 27
New
Nov 4
First Quarter
Nov 12
Full
Nov 19
Last Quarter

Hourly Weather History & Observations

Time (EDT) Temp. Windchill Dew Point Humidity Pressure Visibility Wind Dir Wind Speed Gust Speed Precip Events Conditions
12:19 AM 46.4 °F 42.9 °F 44.6 °F 93% 29.98 in 10.0 mi NE 6.9 mph - N/A   Clear
12:37 AM 46.8 °F - 45.0 °F 93% 29.98 in 10.0 mi NE 6.9 mph - N/A   Clear
12:55 AM 48.2 °F - 46.2 °F 93% 29.97 in 10.0 mi NE 5.8 mph - N/A   Clear
1:15 AM 48.2 °F - 46.0 °F 92% 29.97 in 7.0 mi NE 6.9 mph - N/A   Clear
1:35 AM 47.7 °F - 45.7 °F 93% 29.98 in 7.0 mi NE 4.6 mph - N/A   Clear
1:40 AM 47.7 °F - 45.7 °F 93% 29.98 in 7.0 mi NE 4.6 mph - N/A   Clear
1:58 AM 48.2 °F - 46.4 °F 93% 29.98 in 7.0 mi NE 6.9 mph - N/A   Scattered Clouds
2:16 AM 48.4 °F - 46.6 °F 93% 29.98 in 7.0 mi ENE 6.9 mph - N/A   Mostly Cloudy
2:35 AM 49.3 °F - 47.3 °F 93% 29.97 in 7.0 mi NE 8.1 mph - N/A   Overcast
2:36 AM 49.3 °F - 47.3 °F 93% 29.97 in 7.0 mi NE 8.1 mph - N/A   Overcast
2:55 AM 49.6 °F - 47.3 °F 92% 29.97 in 10.0 mi ENE 8.1 mph - N/A   Overcast
2:56 AM 49.6 °F - 47.3 °F 92% 29.97 in 10.0 mi ENE 8.1 mph - N/A   Overcast
3:19 AM 48.4 °F - 46.0 °F 92% 29.97 in 7.0 mi ENE 6.9 mph - N/A   Mostly Cloudy
3:37 AM 48.2 °F - 45.9 °F 92% 29.96 in 7.0 mi ENE 6.9 mph - N/A   Mostly Cloudy
3:55 AM 47.5 °F - 45.3 °F 92% 29.94 in 10.0 mi ENE 6.9 mph - N/A   Scattered Clouds
3:56 AM 47.5 °F - 45.1 °F 92% 29.94 in 10.0 mi ENE 5.8 mph - N/A   Scattered Clouds
4:15 AM 47.5 °F - 45.3 °F 92% 29.95 in 10.0 mi ENE 4.6 mph - N/A   Scattered Clouds
4:16 AM 47.5 °F - 45.1 °F 92% 29.95 in 10.0 mi ENE 4.6 mph - N/A   Scattered Clouds
4:35 AM 47.3 °F - 44.6 °F 90% 29.96 in 10.0 mi NE 5.8 mph - N/A   Scattered Clouds
4:40 AM 47.7 °F - 45.1 °F 91% 29.96 in 10.0 mi ENE 4.6 mph - N/A   Mostly Cloudy
4:58 AM 47.3 °F - 44.8 °F 91% 29.96 in 10.0 mi NE 6.9 mph - N/A   Overcast
5:16 AM 48.2 °F - 45.5 °F 90% 29.95 in 10.0 mi ENE 5.8 mph - N/A   Overcast
5:35 AM 48.2 °F - 45.5 °F 90% 29.95 in 10.0 mi ENE 4.6 mph - N/A   Overcast
5:55 AM 48.6 °F - 45.7 °F 90% 29.96 in 10.0 mi ENE 5.8 mph - N/A   Overcast
6:19 AM 48.7 °F - 45.9 °F 90% 29.94 in 10.0 mi ENE 8.1 mph - N/A   Overcast
6:37 AM 48.6 °F - 45.7 °F 90% 29.94 in 10.0 mi ENE 5.8 mph - N/A   Overcast
6:55 AM 48.2 °F - 45.7 °F 91% 29.94 in 10.0 mi East 8.1 mph - N/A   Overcast
6:56 AM 48.2 °F - 45.7 °F 91% 29.94 in 10.0 mi East 6.9 mph - N/A   Overcast
7:15 AM 48.2 °F - 45.5 °F 90% 29.93 in 7.0 mi ENE 9.2 mph - N/A   Overcast
7:16 AM 48.2 °F - 45.5 °F 90% 29.93 in 7.0 mi ENE 8.1 mph - N/A   Overcast
7:35 AM 48.0 °F - 45.5 °F 91% 29.92 in 10.0 mi ENE 9.2 mph - N/A   Mostly Cloudy
7:40 AM 48.2 °F - 45.5 °F 90% 29.91 in 10.0 mi ENE 9.2 mph - N/A   Mostly Cloudy
7:58 AM 47.8 °F - 45.3 °F 91% 29.89 in 7.0 mi NE 8.1 mph - N/A   Mostly Cloudy
8:16 AM 48.0 °F - 45.5 °F 91% 29.88 in 7.0 mi ENE 9.2 mph - N/A   Overcast
8:35 AM 48.6 °F - 45.7 °F 90% 29.86 in 7.0 mi ENE 8.1 mph - N/A   Overcast
8:36 AM 48.6 °F - 45.7 °F 90% 29.86 in 10.0 mi ENE 6.9 mph 10.4 mph N/A   Overcast
8:55 AM 49.1 °F - 46.0 °F 89% 29.86 in 10.0 mi ENE 8.1 mph - N/A   Overcast
9:19 AM 50.0 °F - 46.6 °F 88% 29.86 in 10.0 mi ENE 8.1 mph - N/A   Overcast
9:37 AM 50.5 °F - 46.9 °F 87% 29.86 in 10.0 mi ESE 5.8 mph - N/A   Overcast
9:55 AM 51.6 °F - 47.5 °F 86% 29.85 in 10.0 mi South 5.8 mph - N/A   Overcast
9:56 AM 51.6 °F - 47.5 °F 86% 29.85 in 10.0 mi South 5.8 mph - N/A   Overcast
10:15 AM 52.2 °F - 47.8 °F 85% 29.85 in 10.0 mi SSE 5.8 mph - N/A   Overcast
10:16 AM 52.3 °F - 47.8 °F 85% 29.85 in 10.0 mi SSE 5.8 mph - N/A   Overcast
10:35 AM 53.1 °F - 48.6 °F 85% 29.83 in 10.0 mi SE 5.8 mph - N/A   Overcast
10:40 AM 53.2 °F - 48.6 °F 84% 29.83 in 10.0 mi ESE 6.9 mph - N/A   Overcast
10:58 AM 54.5 °F - 49.5 °F 83% 29.81 in 10.0 mi SE 5.8 mph - N/A   Mostly Cloudy
11:16 AM 55.6 °F - 49.8 °F 81% 29.79 in 10.0 mi ESE 4.6 mph - N/A   Overcast
11:35 AM 56.7 °F - 50.0 °F 78% 29.79 in 10.0 mi SE 4.6 mph - N/A   Overcast
11:36 AM 56.7 °F - 50.2 °F 79% 29.79 in 10.0 mi SE 3.5 mph - N/A   Overcast
11:55 AM 57.7 °F - 50.7 °F 77% 29.78 in 10.0 mi SE 4.6 mph - N/A   Overcast
11:56 AM 57.9 °F - 50.7 °F 77% 29.78 in 10.0 mi SSE 4.6 mph - N/A   Overcast
12:19 PM 59.7 °F - 51.6 °F 75% 29.78 in 10.0 mi SSE 8.1 mph - N/A   Overcast
12:37 PM 60.4 °F - 52.0 °F 74% 29.76 in 10.0 mi SSE 6.9 mph - N/A   Overcast
12:55 PM 59.9 °F - 53.4 °F 79% 29.74 in 7.0 mi ESE 11.5 mph 20.7 mph N/A Rain Light Rain
12:56 PM 59.9 °F - 53.6 °F 80% 29.74 in 7.0 mi ESE 12.7 mph 20.7 mph N/A Rain Light Rain
1:15 PM 59.2 °F - 54.5 °F 84% 29.73 in 7.0 mi SE 8.1 mph - N/A Rain Rain
1:16 PM 59.2 °F - 54.7 °F 85% 29.73 in 7.0 mi SE 8.1 mph - N/A Rain Rain
1:35 PM 59.0 °F - 55.4 °F 88% 29.71 in 7.0 mi ESE 9.2 mph - N/A Rain Rain
1:40 PM 59.0 °F - 55.4 °F 88% 29.71 in 7.0 mi ESE 8.1 mph - N/A Rain Rain
1:58 PM 59.2 °F - 55.8 °F 88% 29.70 in 10.0 mi ESE 8.1 mph - N/A Rain Light Rain
2:16 PM 59.9 °F - 55.8 °F 86% 29.67 in 10.0 mi ESE 11.5 mph 18.4 mph N/A Rain Light Rain
2:35 PM 59.7 °F - 55.4 °F 86% 29.66 in 7.0 mi ESE 12.7 mph 19.6 mph N/A Rain Light Rain
2:55 PM 59.7 °F - 55.8 °F 87% 29.64 in 7.0 mi ESE 12.7 mph 17.3 mph N/A Rain Light Rain
3:19 PM 59.9 °F - 55.8 °F 86% 29.60 in 10.0 mi ESE 15.0 mph 24.2 mph N/A Rain Light Rain
3:37 PM 60.4 °F - 55.4 °F 83% 29.58 in 10.0 mi SE 19.6 mph 32.2 mph N/A Rain Light Rain
3:55 PM 60.8 °F - 55.4 °F 82% 29.61 in 10.0 mi SE 13.8 mph 24.2 mph N/A   Overcast
4:15 PM 60.8 °F - 55.4 °F 82% 29.60 in 10.0 mi SSE 15.0 mph 25.3 mph N/A Rain Light Rain
4:16 PM 60.8 °F - 55.4 °F 82% 29.60 in 10.0 mi SSE 13.8 mph 25.3 mph N/A Rain Light Rain
4:35 PM 60.8 °F - 55.4 °F 82% 29.61 in 10.0 mi SSE 19.6 mph 28.8 mph N/A   Overcast
4:40 PM 60.8 °F - 55.0 °F 81% 29.62 in 10.0 mi South 15.0 mph 28.8 mph N/A   Overcast
4:58 PM 60.4 °F - 55.0 °F 82% 29.61 in 10.0 mi SSE 18.4 mph 26.5 mph N/A   Overcast
5:16 PM 59.4 °F - 55.6 °F 87% 29.61 in 3.0 mi SSE 11.5 mph 21.9 mph N/A Rain Rain
5:35 PM 59.0 °F - 55.8 °F 89% 29.61 in 5.0 mi SSE 9.2 mph 21.9 mph N/A Rain Light Rain
5:36 PM 59.0 °F - 55.8 °F 89% 29.61 in 5.0 mi SE 9.2 mph 17.3 mph N/A Rain Light Rain
5:55 PM 58.5 °F - 55.9 °F 91% 29.60 in 4.0 mi SE 10.4 mph 20.7 mph N/A Rain Light Rain
5:56 PM 58.5 °F - 55.9 °F 91% 29.60 in 4.0 mi SE 11.5 mph 20.7 mph N/A Rain Light Rain
6:19 PM 58.5 °F - 56.3 °F 93% 29.58 in 7.0 mi SE 11.5 mph 21.9 mph N/A Rain Light Rain
6:37 PM 58.6 °F - 56.3 °F 92% 29.58 in 4.0 mi SE 12.7 mph 20.7 mph N/A Rain Rain
6:55 PM 58.6 °F - 56.3 °F 92% 29.57 in 7.0 mi SE 15.0 mph 21.9 mph N/A Rain Light Rain
7:15 PM 58.6 °F - 56.3 °F 92% 29.57 in 10.0 mi SE 11.5 mph 19.6 mph N/A   Overcast
7:16 PM 58.6 °F - 56.3 °F 92% 29.57 in 10.0 mi SE 11.5 mph 19.6 mph N/A   Overcast
7:35 PM 59.0 °F - 56.3 °F 91% 29.56 in 10.0 mi SE 11.5 mph 17.3 mph N/A   Overcast
7:58 PM 59.2 °F - 56.3 °F 90% 29.56 in 10.0 mi SE 11.5 mph 16.1 mph N/A Rain Light Rain
8:16 PM 59.4 °F - 56.5 °F 90% 29.56 in 10.0 mi SSE 8.1 mph - N/A   Overcast
8:35 PM 59.9 °F - 56.7 °F 89% 29.56 in 10.0 mi SSE 8.1 mph 17.3 mph N/A   Overcast
8:36 PM 59.9 °F - 56.7 °F 89% 29.56 in 10.0 mi SSE 9.2 mph 17.3 mph N/A   Overcast
8:55 PM 59.9 °F - 56.8 °F 90% 29.56 in 10.0 mi SSE 8.1 mph - N/A Rain Light Rain
9:19 PM 60.1 °F - 56.7 °F 88% 29.55 in 10.0 mi South 11.5 mph 16.1 mph N/A Rain Light Rain
9:37 PM 59.9 °F - 55.9 °F 87% 29.55 in 10.0 mi South 10.4 mph - N/A   Overcast
9:55 PM 59.7 °F - 55.8 °F 87% 29.55 in 10.0 mi South 17.3 mph - N/A   Overcast
9:56 PM 59.7 °F - 55.8 °F 87% 29.56 in 10.0 mi South 17.3 mph - N/A   Overcast
10:15 PM 59.4 °F - 55.6 °F 87% 29.56 in 10.0 mi South 16.1 mph - N/A   Mostly Cloudy
10:16 PM 59.4 °F - 55.6 °F 87% 29.56 in 10.0 mi South 15.0 mph - N/A   Mostly Cloudy
10:35 PM 59.0 °F - 55.6 °F 88% 29.56 in 10.0 mi SSW 15.0 mph - N/A   Clear
10:58 PM 58.3 °F - 55.6 °F 91% 29.56 in 10.0 mi SSW 13.8 mph - N/A   Mostly Cloudy
11:16 PM 58.5 °F - 55.8 °F 91% 29.56 in 10.0 mi South 15.0 mph - N/A   Mostly Cloudy
11:35 PM 59.2 °F - 54.3 °F 84% 29.58 in 10.0 mi SSW 15.0 mph 26.5 mph N/A   Mostly Cloudy
11:36 PM 59.2 °F - 54.1 °F 83% 29.58 in 10.0 mi SSW 16.1 mph 25.3 mph N/A   Mostly Cloudy
11:55 PM 57.6 °F - 48.2 °F 71% 29.59 in 10.0 mi SW 15.0 mph 23.0 mph N/A   Mostly Cloudy
11:56 PM 57.4 °F - 48.2 °F 71% 29.59 in 10.0 mi SW 15.0 mph 21.9 mph N/A   Mostly Cloudy